Time;durP1;ratioP1;P1;durP2;ratioP2;P2;SDS_P1;SDS_P2;PMS_P1;PMS_P2;Temp;Humidity;BMP_temperature;BMP_pressure;BME280_temperature;BME280_humidity;BME280_pressure;Samples;Min_cycle;Max_cycle;Signal;HPM_P1;HPM_P2
2022/12/25 00:00:50;;;;;;;10.13;1.30;;;;;;;10.76;61.42;98974.34;4319083;33;20096;-89
2022/12/25 00:03:15;;;;;;;6.55;1.50;;;;;;;10.91;61.11;98980.56;4318012;33;20104;-89
2022/12/25 00:05:41;;;;;;;4.93;1.20;;;;;;;11.18;60.28;98992.31;4317842;33;20389;-91
2022/12/25 00:08:06;;;;;;;6.45;1.20;;;;;;;11.40;59.58;98999.91;4319199;33;20092;-90
2022/12/25 00:10:32;;;;;;;7.55;1.20;;;;;;;11.44;59.48;98997.94;4319060;33;20111;-90
2022/12/25 00:12:57;;;;;;;5.03;1.20;;;;;;;11.49;58.91;98992.41;4318888;33;20124;-90
2022/12/25 00:15:23;;;;;;;6.40;1.48;;;;;;;11.09;60.08;99005.97;4319425;33;20084;-90
2022/12/25 00:17:48;;;;;;;6.28;1.30;;;;;;;11.30;59.55;99003.97;4307754;33;20169;-89
2022/12/25 00:20:13;;;;;;;6.15;1.30;;;;;;;11.40;59.50;98999.06;4321085;33;20092;-90
2022/12/25 00:22:39;;;;;;;4.97;1.10;;;;;;;11.58;59.17;99008.56;4307824;33;20142;-90
2022/12/25 00:25:04;;;;;;;4.18;1.10;;;;;;;11.80;58.22;99004.75;4321128;33;20096;-90
2022/12/25 00:27:32;;;;;;;5.30;1.30;;;;;;;11.38;59.43;99029.94;4321064;33;20122;-90
2022/12/25 00:29:57;;;;;;;7.50;1.50;;;;;;;11.28;59.77;99026.94;4321084;33;20160;-90
2022/12/25 00:32:23;;;;;;;7.62;1.30;;;;;;;11.48;59.13;99028.50;4319822;33;20128;-90
2022/12/25 00:34:48;;;;;;;6.53;1.35;;;;;;;11.80;58.01;99028.50;4320994;33;20162;-89
2022/12/25 00:37:14;;;;;;;6.22;1.45;;;;;;;11.66;58.61;99031.06;4319698;33;20118;-89
2022/12/25 00:39:39;;;;;;;3.85;1.08;;;;;;;11.35;59.36;99043.28;4320947;33;20488;-89
2022/12/25 00:42:19;;;;;;;6.87;1.50;;;;;;;11.61;58.72;99034.81;4320878;33;20140;-89
2022/12/25 00:44:49;;;;;;;6.53;1.65;;;;;;;11.77;58.40;99034.81;4321031;33;20091;-90
2022/12/25 00:47:15;;;;;;;8.75;1.50;;;;;;;11.40;59.47;99035.97;4320940;33;20425;-91
2022/12/25 00:49:40;;;;;;;7.85;1.98;;;;;;;11.44;59.42;99032.25;4319946;33;20087;-90
2022/12/25 00:52:06;;;;;;;6.53;1.30;;;;;;;11.14;60.44;99045.28;4320839;33;20118;-89
2022/12/25 00:54:32;;;;;;;5.72;1.40;;;;;;;11.56;59.23;99046.56;4307427;33;20477;-89
2022/12/25 00:56:57;;;;;;;7.45;1.27;;;;;;;11.25;59.99;99061.38;4320830;33;20115;-91
2022/12/25 00:59:23;;;;;;;6.22;1.27;;;;;;;11.39;59.85;99066.75;4320863;33;20416;-90
2022/12/25 01:01:48;;;;;;;7.47;1.40;;;;;;;11.63;59.05;99049.69;4319643;33;20143;-90
2022/12/25 01:04:13;;;;;;;6.53;1.33;;;;;;;11.66;58.92;99050.38;4320859;33;20108;-90
2022/12/25 01:06:39;;;;;;;6.43;1.65;;;;;;;11.74;58.50;99049.97;4320660;33;20184;-89
2022/12/25 01:11:49;;;;;;;6.90;1.40;;;;;;;11.94;58.14;99051.53;4320066;33;20195;-89
2022/12/25 01:14:14;;;;;;;5.28;1.12;;;;;;;11.59;58.77;99054.31;4320762;33;20083;-90
2022/12/25 01:16:40;;;;;;;4.90;1.30;;;;;;;11.68;58.67;99048.50;4320415;33;20101;-90
2022/12/25 01:19:05;;;;;;;9.73;1.60;;;;;;;11.66;58.72;99060.09;4319460;33;20084;-90
2022/12/25 01:21:31;;;;;;;8.82;1.58;;;;;;;11.84;58.21;99060.84;4320763;33;20092;-90
2022/12/25 01:23:56;;;;;;;7.25;1.58;;;;;;;11.85;58.23;99060.78;4320757;33;20092;-90
2022/12/25 01:26:24;;;;;;;6.05;1.33;;;;;;;11.68;58.60;99064.34;4320402;33;20118;-89
2022/12/25 01:28:50;;;;;;;4.85;1.33;;;;;;;11.58;59.02;99061.34;4320630;33;20104;-90
2022/12/25 01:31:17;;;;;;;5.43;1.50;;;;;;;11.64;58.44;99065.44;4307192;33;20494;-90
2022/12/25 01:33:43;;;;;;;7.43;1.40;;;;;;;11.86;57.85;99064.25;4320637;33;20092;-89
2022/12/25 01:36:16;;;;;;;7.65;1.50;;;;;;;11.94;57.79;99068.22;4319566;33;20507;-90
2022/12/25 01:38:42;;;;;;;10.88;1.70;;;;;;;11.99;57.78;99062.69;4320768;33;20437;-90
2022/12/25 01:41:07;;;;;;;7.37;1.50;;;;;;;11.90;58.03;99064.06;4319527;33;20541;-90
2022/12/25 01:43:33;;;;;;;8.70;1.83;;;;;;;11.90;58.06;99082.53;4320577;33;20096;-90
2022/12/25 01:45:59;;;;;;;7.40;1.67;;;;;;;11.89;58.29;99079.94;4320580;33;20143;-90
2022/12/25 01:48:28;;;;;;;7.68;2.03;;;;;;;11.72;58.83;99073.78;4320602;33;20114;-90
2022/12/25 01:50:58;;;;;;;6.97;1.45;;;;;;;11.56;59.28;99076.41;4320489;33;20088;-90
2022/12/25 01:53:24;;;;;;;6.43;1.40;;;;;;;11.79;58.63;99074.31;4307277;33;20099;-90
2022/12/25 01:55:54;;;;;;;10.00;1.95;;;;;;;11.68;58.79;99071.41;4319301;33;20122;-89
2022/12/25 01:58:20;;;;;;;6.70;1.50;;;;;;;11.85;58.56;99060.78;4319466;33;20433;-90
2022/12/25 02:00:45;;;;;;;6.70;1.90;;;;;;;11.89;58.44;99069.38;4318968;33;20127;-90
2022/12/25 02:03:11;;;;;;;8.77;1.80;;;;;;;11.86;58.83;99067.78;4320541;33;20128;-90
2022/12/25 02:05:37;;;;;;;5.18;1.40;;;;;;;11.88;58.70;99079.09;4319235;33;20419;-90
2022/12/25 02:08:08;;;;;;;7.70;1.62;;;;;;;11.81;58.58;99067.16;4319361;33;20106;-90
2022/12/25 02:10:33;;;;;;;8.07;2.12;;;;;;;11.78;58.73;99064.69;4320515;33;20152;-90
2022/12/25 02:13:00;;;;;;;7.05;1.52;;;;;;;11.49;59.43;99064.50;4320495;33;20127;-90
2022/12/25 02:15:32;;;;;;;7.18;1.65;;;;;;;11.31;60.05;99068.97;4320292;33;20441;-90
2022/12/25 02:18:12;;;;;;;5.53;1.40;;;;;;;11.28;60.11;99065.63;4319338;33;20128;-90
2022/12/25 02:21:04;;;;;;;6.25;1.52;;;;;;;11.45;59.62;99073.50;4307159;33;20520;-90
2022/12/25 02:23:33;;;;;;;6.28;1.70;;;;;;;11.43;60.24;99064.81;4318180;33;20151;-90
2022/12/25 02:26:04;;;;;;;7.22;1.30;;;;;;;11.17;60.57;99064.41;4320262;33;20400;-90
2022/12/25 02:28:55;;;;;;;7.00;1.67;;;;;;;11.43;60.12;99071.87;4320225;33;20443;-90
2022/12/25 02:31:40;;;;;;;5.43;1.25;;;;;;;11.54;59.94;99073.00;4316560;33;20103;-90
2022/12/25 02:34:19;;;;;;;5.22;1.42;;;;;;;11.65;59.34;99077.72;4319160;33;20111;-90
2022/12/25 02:36:49;;;;;;;7.62;1.73;;;;;;;11.52;59.54;99082.78;4320278;33;20175;-90
2022/12/25 02:42:15;;;;;;;8.75;1.58;;;;;;;11.68;59.47;99088.09;4319407;33;20127;-90
2022/12/25 03:07:12;;;;;;;6.27;1.60;;;;;;;11.79;59.81;99108.63;4318915;33;20126;-90
2022/12/25 03:12:48;;;;;;;6.68;2.03;;;;;;;11.61;60.34;99113.97;4319983;33;20152;-90
2022/12/25 03:18:03;;;;;;;8.13;1.65;;;;;;;11.76;59.75;99129.91;4318942;33;20126;-90
2022/12/25 03:28:41;;;;;;;8.63;2.10;;;;;;;11.72;59.40;99120.44;4319841;33;20192;-90
2022/12/25 03:31:15;;;;;;;8.35;1.87;;;;;;;11.77;59.42;99113.16;4318856;33;20084;-90
2022/12/25 03:35:21;;;;;;;7.68;1.80;;;;;;;11.79;59.48;99119.19;4318736;33;20136;-90
2022/12/25 03:36:39;;;;;;;9.88;1.92;;;;;;;11.80;59.20;99134.94;4319481;33;20096;-90
2022/12/25 04:36:47;;;;;;;9.73;2.10;;;;;;;11.26;59.53;99155.41;4321075;33;20199;-89
2022/12/25 04:39:13;;;;;;;8.30;2.10;;;;;;;10.89;60.68;99151.12;4320961;33;20088;-90
2022/12/25 04:41:38;;;;;;;7.72;1.80;;;;;;;11.24;59.67;99136.12;4320930;33;20392;-89
2022/12/25 04:44:04;;;;;;;8.63;1.92;;;;;;;11.27;59.82;99140.44;4321000;33;20135;-89
2022/12/25 04:46:29;;;;;;;10.05;2.40;;;;;;;11.41;59.18;99125.59;4321055;33;20167;-90
2022/12/25 04:48:55;;;;;;;10.45;2.70;;;;;;;10.93;60.74;99127.19;4320974;33;20107;-89
2022/12/25 04:51:23;;;;;;;11.20;2.08;;;;;;;11.38;59.44;99125.75;4320944;33;20095;-91
2022/12/25 04:53:49;;;;;;;10.45;2.05;;;;;;;11.20;59.63;99140.75;4319744;33;20109;-89
2022/12/25 04:56:15;;;;;;;10.40;2.10;;;;;;;10.68;61.53;99153.03;4307483;33;20814;-90
2022/12/25 04:58:41;;;;;;;8.25;2.30;;;;;;;11.17;59.93;99143.53;4319789;33;20114;-90
2022/12/25 05:01:07;;;;;;;6.68;2.05;;;;;;;10.92;61.01;99156.25;4320369;33;20123;-89
2022/12/25 05:03:32;;;;;;;8.00;2.00;;;;;;;10.86;61.04;99162.69;4320888;33;20107;-90
2022/12/25 05:05:58;;;;;;;7.97;2.12;;;;;;;11.08;60.41;99151.06;4320734;33;20097;-90
2022/12/25 05:08:24;;;;;;;9.25;2.17;;;;;;;11.23;59.65;99154.69;4320908;33;20106;-91
2022/12/25 05:10:49;;;;;;;9.77;2.03;;;;;;;11.23;59.63;99150.28;4319728;33;20112;-90
2022/12/25 05:13:15;;;;;;;8.68;2.25;;;;;;;11.30;59.51;99151.66;4320767;33;20096;-90
2022/12/25 05:15:41;;;;;;;8.10;2.20;;;;;;;11.32;59.74;99165.63;4320711;33;20100;-90
2022/12/25 05:18:07;;;;;;;11.95;2.28;;;;;;;11.28;59.52;99156.19;4319691;33;20118;-90
2022/12/25 05:20:32;;;;;;;10.50;2.20;;;;;;;11.29;59.37;99164.94;4319596;33;20135;-90
2022/12/25 05:22:57;;;;;;;8.18;2.10;;;;;;;11.27;59.37;99162.37;4320563;33;20087;-90
2022/12/25 05:25:23;;;;;;;10.35;2.28;;;;;;;11.25;59.51;99163.37;4320631;33;20115;-90
2022/12/25 05:27:48;;;;;;;8.38;1.83;;;;;;;11.26;59.68;99162.44;4320511;33;20142;-90
2022/12/25 05:30:14;;;;;;;6.82;1.87;;;;;;;11.23;59.73;99162.63;4319593;33;20158;-91
2022/12/25 05:32:39;;;;;;;7.57;2.03;;;;;;;11.20;59.92;99166.25;4320648;33;20099;-90
2022/12/25 05:35:07;;;;;;;12.80;2.42;;;;;;;11.17;59.87;99162.00;4320612;33;20092;-90
2022/12/25 05:37:35;;;;;;;9.73;2.40;;;;;;;11.18;59.88;99166.34;4307360;33;20109;-89
2022/12/25 05:40:02;;;;;;;9.52;2.08;;;;;;;11.16;59.89;99170.84;4320825;33;20422;-89
2022/12/25 05:42:28;;;;;;;8.02;1.80;;;;;;;10.82;60.98;99174.31;4320979;33;20127;-89
2022/12/25 05:44:53;;;;;;;9.20;2.22;;;;;;;11.04;60.23;99174.09;4320768;33;20451;-90
2022/12/25 05:47:19;;;;;;;8.95;2.00;;;;;;;10.88;60.45;99174.00;4307508;33;20133;-90
2022/12/25 05:49:44;;;;;;;8.32;2.10;;;;;;;10.97;60.38;99175.31;4320881;33;20131;-90
2022/12/25 05:52:10;;;;;;;9.20;2.17;;;;;;;10.99;60.44;99184.87;4319608;33;20410;-89
2022/12/25 05:54:35;;;;;;;7.55;2.20;;;;;;;10.93;60.33;99182.53;4319727;33;20087;-89
2022/12/25 05:57:01;;;;;;;8.13;2.00;;;;;;;10.92;60.17;99188.72;4320708;33;20110;-90
2022/12/25 05:59:30;;;;;;;9.57;2.08;;;;;;;10.35;61.63;99193.25;4319437;33;20250;-89
2022/12/25 06:01:56;;;;;;;13.48;2.25;;;;;;;10.60;60.99;99196.44;4319675;33;20134;-89
2022/12/25 06:04:22;;;;;;;12.25;2.33;;;;;;;10.73;60.68;99201.09;4319298;33;20139;-90
2022/12/25 06:06:47;;;;;;;6.72;1.60;;;;;;;10.71;60.55;99193.28;4320281;33;20084;-89
2022/12/25 06:09:13;;;;;;;11.77;2.45;;;;;;;10.77;60.29;99189.50;4320494;33;20092;-89
2022/12/25 06:11:39;;;;;;;9.20;2.10;;;;;;;10.73;60.44;99193.22;4320391;33;20142;-89
2022/12/25 06:14:04;;;;;;;7.93;2.08;;;;;;;10.72;60.58;99189.72;4319387;33;20422;-89
2022/12/25 06:16:30;;;;;;;8.68;2.05;;;;;;;10.56;60.88;99184.31;4319196;33;20092;-88
2022/12/25 06:18:55;;;;;;;8.43;2.22;;;;;;;10.49;61.14;99187.31;4320420;33;20100;-89
2022/12/25 06:21:20;;;;;;;10.65;2.10;;;;;;;10.58;60.90;99178.97;4307091;33;20104;-89
2022/12/25 06:23:46;;;;;;;10.65;2.60;;;;;;;10.54;60.88;99182.69;4320263;33;20079;-89
2022/12/25 06:26:15;;;;;;;10.70;2.20;;;;;;;10.56;60.92;99191.38;4320296;33;20118;-89
2022/12/25 06:28:40;;;;;;;9.20;2.20;;;;;;;10.31;61.87;99186.44;4320250;33;20108;-88
2022/12/25 06:31:07;;;;;;;9.65;2.08;;;;;;;9.99;62.29;99208.03;4319159;33;20126;-89
2022/12/25 06:33:32;;;;;;;12.50;2.50;;;;;;;10.41;61.32;99191.19;4319257;33;20099;-89
2022/12/25 06:35:58;;;;;;;9.73;2.45;;;;;;;10.45;61.14;99198.94;4318967;33;20088;-89
2022/12/25 06:38:23;;;;;;;9.05;2.42;;;;;;;10.46;61.18;99216.47;4320106;33;20096;-90
2022/12/25 06:40:49;;;;;;;7.35;2.05;;;;;;;10.61;60.87;99211.31;4320231;33;20132;-89
2022/12/25 06:43:14;;;;;;;9.98;2.35;;;;;;;10.66;60.80;99212.88;4319957;33;20111;-90
2022/12/25 06:45:39;;;;;;;10.32;2.33;;;;;;;10.70;61.01;99214.41;4320066;33;20100;-89
2022/12/25 06:48:05;;;;;;;8.35;2.30;;;;;;;10.63;62.73;99217.34;4320059;33;20099;-89
2022/12/25 06:50:30;;;;;;;10.00;3.15;;;;;;;10.66;62.68;99215.50;4320064;33;20087;-90
2022/12/25 06:52:56;;;;;;;10.20;2.25;;;;;;;10.71;62.59;99213.50;4320061;33;20084;-90
2022/12/25 06:55:21;;;;;;;9.40;2.35;;;;;;;10.69;61.37;99220.62;4320138;33;20420;-90
2022/12/25 06:57:46;;;;;;;11.07;2.75;;;;;;;10.72;61.07;99226.63;4306792;33;20138;-89
2022/12/25 07:00:12;;;;;;;9.80;2.78;;;;;;;10.75;60.96;99226.44;4320164;33;20343;-89
2022/12/25 07:02:40;;;;;;;12.50;2.53;;;;;;;10.77;61.01;99232.50;4319135;33;20092;-89
2022/12/25 07:05:06;;;;;;;12.00;2.47;;;;;;;10.72;60.96;99229.25;4318989;33;20261;-89
2022/12/25 07:07:31;;;;;;;9.40;2.40;;;;;;;10.71;61.10;99245.97;4320169;33;20411;-90
2022/12/25 07:09:56;;;;;;;10.18;2.28;;;;;;;10.78;62.23;99252.66;4306948;33;20361;-89
2022/12/25 07:12:23;;;;;;;10.45;2.12;;;;;;;10.80;62.24;99261.34;4320130;33;20126;-90
2022/12/25 07:14:48;;;;;;;8.75;2.00;;;;;;;10.76;61.89;99259.78;4320121;33;20115;-89
2022/12/25 07:17:18;;;;;;;6.80;1.60;;;;;;;10.81;60.80;99268.31;4320072;33;20389;-90
2022/12/25 07:19:45;;;;;;;5.75;1.70;;;;;;;10.82;60.79;99283.22;4318611;33;20103;-90
2022/12/25 07:22:10;;;;;;;8.88;2.25;;;;;;;10.86;60.82;99283.94;4319808;33;20165;-90
2022/12/25 07:24:36;;;;;;;9.77;3.00;;;;;;;10.79;60.81;99279.88;4308336;33;20444;-90
2022/12/25 07:27:01;;;;;;;6.95;2.17;;;;;;;10.77;60.82;99279.94;4324590;33;20146;-89
2022/12/25 07:29:26;;;;;;;8.35;1.90;;;;;;;10.82;60.54;99277.94;4324485;33;20453;-89
2022/12/25 07:31:52;;;;;;;8.70;2.30;;;;;;;10.74;60.88;99277.47;4324362;33;20494;-90
2022/12/25 07:34:18;;;;;;;10.40;2.47;;;;;;;10.81;61.08;99285.91;4311395;33;20084;-89
2022/12/25 07:36:43;;;;;;;9.05;2.33;;;;;;;10.87;61.03;99295.31;4323560;33;20112;-89
2022/12/25 07:39:12;;;;;;;10.55;2.30;;;;;;;10.91;61.08;99294.25;4323302;33;20155;-89
2022/12/25 07:41:37;;;;;;;11.00;2.40;;;;;;;10.96;61.26;99289.63;4324271;33;20092;-89
2022/12/25 07:44:03;;;;;;;9.43;2.83;;;;;;;11.01;61.38;99292.87;4324251;33;20122;-90
2022/12/25 07:46:28;;;;;;;12.52;2.10;;;;;;;11.06;61.39;99290.03;4324259;33;20084;-90
2022/12/25 07:48:54;;;;;;;8.43;2.08;;;;;;;10.81;60.80;99299.94;4324270;33;20147;-90
2022/12/25 07:51:19;;;;;;;9.65;2.30;;;;;;;11.12;60.84;99303.75;4310874;33;20131;-89
2022/12/25 07:53:44;;;;;;;8.20;2.00;;;;;;;11.11;60.98;99309.13;4324128;33;20087;-89
2022/12/25 07:56:10;;;;;;;8.98;2.00;;;;;;;11.11;60.85;99307.31;4324062;33;20096;-89
2022/12/25 07:58:35;;;;;;;9.38;2.40;;;;;;;11.33;60.36;99311.56;4324122;33;20120;-89
2022/12/25 08:01:07;;;;;;;9.63;2.55;;;;;;;11.17;60.17;99314.94;4324147;33;20088;-89
2022/12/25 08:03:33;;;;;;;12.50;3.17;;;;;;;11.36;59.74;99321.97;4322962;33;20084;-89
2022/12/25 08:06:04;;;;;;;11.55;3.03;;;;;;;11.32;59.38;99323.00;4323909;33;20246;-90
2022/12/25 08:08:29;;;;;;;11.95;3.28;;;;;;;11.32;59.30;99323.00;4322981;33;20104;-89
2022/12/25 08:10:55;;;;;;;10.30;2.70;;;;;;;11.43;59.22;99331.25;4324091;33;20094;-89
2022/12/25 08:13:20;;;;;;;11.35;2.60;;;;;;;11.45;59.24;99329.41;4324053;33;20072;-89
2022/12/25 08:15:46;;;;;;;11.60;2.80;;;;;;;11.51;59.23;99328.25;4323844;33;20483;-89
2022/12/25 08:18:14;;;;;;;12.70;2.42;;;;;;;11.51;59.44;99323.84;4323932;33;20127;-89
2022/12/25 08:20:40;;;;;;;9.75;2.55;;;;;;;11.55;59.35;99319.25;4323871;33;20122;-89
2022/12/25 08:23:05;;;;;;;9.75;2.10;;;;;;;11.58;59.43;99319.09;4323694;33;20087;-89
2022/12/25 08:25:31;;;;;;;5.57;1.80;;;;;;;11.57;59.72;99323.53;4323793;33;20381;-89
2022/12/25 08:27:58;;;;;;;8.15;1.92;;;;;;;11.59;59.97;99326.09;4310389;33;20108;-89
2022/12/25 08:30:23;;;;;;;10.20;2.45;;;;;;;11.59;60.12;99331.37;4323758;33;20256;-89
2022/12/25 08:32:49;;;;;;;8.38;2.05;;;;;;;11.65;60.16;99333.69;4323609;33;20290;-89
2022/12/25 08:35:14;;;;;;;11.70;2.58;;;;;;;11.64;60.10;99336.41;4323052;33;20115;-90
2022/12/25 08:37:40;;;;;;;8.77;2.35;;;;;;;11.70;59.75;99334.31;4320541;33;20101;-89
2022/12/25 08:40:06;;;;;;;11.23;2.47;;;;;;;11.75;59.87;99334.09;4320977;33;20096;-89
2022/12/25 08:42:31;;;;;;;7.35;1.80;;;;;;;11.76;59.85;99339.28;4321018;33;20374;-89
2022/12/25 08:44:56;;;;;;;10.90;2.62;;;;;;;11.81;59.75;99342.53;4319861;33;20119;-89
2022/12/25 08:47:22;;;;;;;8.63;2.12;;;;;;;11.90;59.50;99335.97;4320887;33;20118;-89
2022/12/25 08:49:47;;;;;;;10.40;2.70;;;;;;;11.89;59.87;99342.19;4320934;33;20107;-89
2022/12/25 08:52:12;;;;;;;9.00;2.25;;;;;;;12.07;58.91;99347.44;4320884;33;20335;-89
2022/12/25 08:54:38;;;;;;;10.88;2.67;;;;;;;11.91;59.54;99342.09;4320810;33;20107;-89
2022/12/25 08:57:03;;;;;;;9.07;2.42;;;;;;;12.02;59.40;99336.28;4320790;33;20107;-89
2022/12/25 08:59:29;;;;;;;12.10;2.80;;;;;;;12.06;59.32;99341.31;4320835;33;20429;-89
2022/12/25 09:01:54;;;;;;;13.90;3.28;;;;;;;12.13;59.22;99342.72;4317950;33;92695;-89
2022/12/25 09:04:20;;;;;;;10.88;3.03;;;;;;;12.20;58.84;99341.44;4307371;33;20164;-89
2022/12/25 09:06:45;;;;;;;8.38;2.80;;;;;;;12.26;59.07;99344.72;4320394;33;20096;-89
2022/12/25 09:09:11;;;;;;;10.52;2.72;;;;;;;12.29;58.92;99341.91;4320923;33;20421;-89
2022/12/25 09:11:36;;;;;;;11.35;2.80;;;;;;;12.31;58.91;99340.88;4321024;33;20463;-89
2022/12/25 09:14:01;;;;;;;9.60;2.40;;;;;;;12.41;58.97;99340.41;4319737;33;20116;-89
2022/12/25 09:16:27;;;;;;;11.15;2.33;;;;;;;12.49;58.77;99332.91;4319591;33;20124;-90
2022/12/25 09:18:55;;;;;;;9.23;1.90;;;;;;;12.54;58.64;99344.94;4319658;33;20101;-89
2022/12/25 09:21:20;;;;;;;11.63;2.03;;;;;;;12.55;58.55;99345.78;4320760;33;20472;-89
2022/12/25 09:23:46;;;;;;;12.55;2.25;;;;;;;12.31;57.92;99343.53;4320618;33;20099;-90
2022/12/25 09:26:13;;;;;;;10.25;2.90;;;;;;;12.60;57.51;99341.12;4319522;33;20104;-89
2022/12/25 09:28:39;;;;;;;12.57;3.03;;;;;;;12.60;56.91;99349.06;4320600;33;20089;-89
2022/12/25 09:31:04;;;;;;;13.43;3.83;;;;;;;12.67;57.28;99352.22;4320563;33;20115;-89
2022/12/25 09:33:30;;;;;;;12.98;3.28;;;;;;;12.70;57.49;99344.97;4320577;33;20112;-89
2022/12/25 09:36:00;;;;;;;10.07;3.35;;;;;;;12.78;57.67;99344.56;4320517;33;20100;-89
2022/12/25 09:38:26;;;;;;;10.32;2.62;;;;;;;12.86;57.97;99346.78;4319473;33;20118;-89
2022/12/25 09:41:01;;;;;;;9.18;2.85;;;;;;;12.87;57.89;99348.50;4319503;33;20430;-89
2022/12/25 09:43:30;;;;;;;12.57;2.85;;;;;;;12.79;57.85;99352.41;4319677;33;20469;-89
2022/12/25 09:45:56;;;;;;;10.40;2.30;;;;;;;12.68;57.56;99360.06;4319677;33;20144;-89
2022/12/25 09:48:22;;;;;;;9.57;2.40;;;;;;;12.94;57.07;99353.37;4319563;33;20123;-89
2022/12/25 09:50:58;;;;;;;11.18;2.80;;;;;;;13.09;56.64;99350.78;4320773;33;20080;-89
2022/12/25 09:53:27;;;;;;;10.55;3.22;;;;;;;13.18;56.78;99353.78;4319439;33;20108;-89
2022/12/25 09:56:03;;;;;;;10.10;3.00;;;;;;;13.27;56.36;99357.72;4319440;33;20172;-89
2022/12/25 09:58:29;;;;;;;11.50;3.62;;;;;;;13.34;56.24;99347.66;4319596;33;20183;-90
2022/12/25 10:01:02;;;;;;;11.18;3.00;;;;;;;13.41;56.06;99350.81;4319503;33;20093;-89
2022/12/25 10:03:41;;;;;;;11.23;3.03;;;;;;;13.26;56.18;99353.34;4319507;33;20135;-89
2022/12/25 10:06:29;;;;;;;13.57;3.12;;;;;;;13.50;55.46;99350.25;4307527;33;20129;-90
2022/12/25 10:09:33;;;;;;;11.70;2.95;;;;;;;13.25;56.13;99354.28;4321096;33;20084;-89
2022/12/25 10:12:07;;;;;;;11.77;3.60;;;;;;;13.51;55.85;99344.03;4320713;33;20076;-89
2022/12/25 10:14:41;;;;;;;12.20;2.22;;;;;;;13.56;55.76;99342.84;4320463;33;20096;-89
2022/12/25 10:17:18;;;;;;;8.38;2.15;;;;;;;13.44;55.05;99346.16;4320397;33;20115;-89
2022/12/25 10:19:47;;;;;;;11.43;2.50;;;;;;;13.42;55.45;99342.75;4320488;33;20092;-90
2022/12/25 10:22:44;;;;;;;12.05;2.95;;;;;;;13.62;54.95;99336.34;4320282;33;20381;-89
2022/12/25 10:25:21;;;;;;;10.27;2.40;;;;;;;13.63;55.21;99331.88;4316343;33;20180;-89
2022/12/25 10:28:00;;;;;;;8.48;2.28;;;;;;;13.68;54.77;99333.31;4320446;33;20091;-89
2022/12/25 10:30:27;;;;;;;10.38;2.55;;;;;;;13.82;54.57;99329.84;4319203;33;20092;-89
2022/12/25 10:32:55;;;;;;;9.90;2.50;;;;;;;13.83;54.39;99326.28;4320346;33;20151;-89
2022/12/25 10:35:23;;;;;;;10.05;2.50;;;;;;;13.83;54.34;99328.06;4320191;33;20463;-89
2022/12/25 10:38:21;;;;;;;7.90;1.83;;;;;;;13.55;54.10;99327.88;4306801;33;20103;-89
2022/12/25 10:40:52;;;;;;;10.18;2.55;;;;;;;13.47;51.78;99324.81;4289219;33;20089;-89
2022/12/25 10:43:24;;;;;;;11.55;2.80;;;;;;;13.85;52.60;99328.81;4289187;33;20171;-89
2022/12/25 10:45:50;;;;;;;10.40;3.37;;;;;;;13.84;53.89;99330.63;4289154;33;20188;-90
2022/12/25 10:48:27;;;;;;;7.28;1.70;;;;;;;13.92;53.81;99325.69;4289031;33;20212;-89
2022/12/25 10:50:53;;;;;;;11.07;2.92;;;;;;;13.86;53.24;99326.06;4289007;33;20122;-90
2022/12/25 10:53:26;;;;;;;9.02;2.40;;;;;;;13.46;54.20;99333.72;4289066;33;20092;-90
2022/12/25 10:56:01;;;;;;;8.20;2.37;;;;;;;13.70;58.03;99335.88;4288708;33;20113;-88
2022/12/25 10:58:27;;;;;;;10.40;2.12;;;;;;;14.03;53.01;99332.19;4288722;33;20466;-89
2022/12/25 11:00:58;;;;;;;10.90;3.00;;;;;;;13.78;51.20;99333.62;4276621;33;20489;-89
2022/12/25 11:03:25;;;;;;;11.12;2.72;;;;;;;14.03;51.75;99317.13;4276989;33;20084;-89
2022/12/25 11:05:51;;;;;;;10.93;2.58;;;;;;;13.95;52.38;99322.03;4276708;33;20172;-89
2022/12/25 11:08:21;;;;;;;9.70;1.80;;;;;;;14.21;51.54;99309.84;4288984;33;20124;-90
2022/12/25 11:10:57;;;;;;;7.43;1.40;;;;;;;14.19;49.31;99311.75;4288760;33;20233;-90
2022/12/25 11:13:25;;;;;;;6.75;1.30;;;;;;;14.23;49.46;99312.41;4288743;33;20131;-88
2022/12/25 11:16:24;;;;;;;7.55;1.50;;;;;;;14.15;48.65;99300.47;4297245;33;20107;-89
2022/12/25 11:18:52;;;;;;;5.57;1.00;;;;;;;14.07;48.29;99297.44;4294670;33;20156;-88
2022/12/25 11:21:20;;;;;;;5.57;0.90;;;;;;;14.31;47.38;99286.28;4318704;33;20084;-89
2022/12/25 11:23:48;;;;;;;7.10;1.20;;;;;;;14.36;46.71;99282.41;4306516;33;20110;-89
2022/12/25 11:26:15;;;;;;;4.12;0.90;;;;;;;14.32;46.71;99291.50;4319731;33;20100;-89
2022/12/25 11:28:42;;;;;;;4.80;1.05;;;;;;;14.12;46.59;99298.03;4319741;33;20091;-89
2022/12/25 11:31:08;;;;;;;5.75;1.30;;;;;;;14.26;46.70;99294.53;4318489;33;20083;-88
2022/12/25 11:33:49;;;;;;;6.35;1.40;;;;;;;14.07;46.77;99283.34;4294349;33;20143;-90
2022/12/25 11:36:38;;;;;;;5.75;1.08;;;;;;;13.69;47.21;99299.75;4318474;33;20097;-88
2022/12/25 11:39:36;;;;;;;5.10;0.97;;;;;;;14.16;46.53;99285.44;4319682;33;20229;-89
2022/12/25 11:42:21;;;;;;;5.25;1.20;;;;;;;14.38;46.28;99286.78;4319718;33;20196;-89
2022/12/25 11:45:03;;;;;;;9.38;1.10;;;;;;;14.45;46.45;99288.09;4319568;33;20091;-89
2022/12/25 11:47:44;;;;;;;4.45;1.30;;;;;;;14.30;46.19;99290.75;4306422;33;20096;-89
2022/12/25 11:50:12;;;;;;;5.22;1.20;;;;;;;14.35;45.90;99288.66;4306289;33;20159;-89
2022/12/25 11:52:39;;;;;;;6.62;1.70;;;;;;;14.16;46.34;99296.03;4319430;33;20092;-89
2022/12/25 11:55:40;;;;;;;7.93;1.27;;;;;;;14.30;46.47;99279.28;4318234;33;20111;-89
2022/12/25 11:58:37;;;;;;;11.68;1.65;;;;;;;14.40;46.37;99280.41;4318171;33;20126;-89
2022/12/25 12:01:06;;;;;;;6.50;1.52;;;;;;;14.39;46.05;99278.72;4297233;33;20164;-89
2022/12/25 12:03:39;;;;;;;5.10;1.30;;;;;;;14.35;45.75;99275.41;4318353;33;20562;-89
2022/12/25 12:06:11;;;;;;;6.28;1.37;;;;;;;14.41;46.25;99281.25;4319255;33;20079;-89
2022/12/25 12:08:37;;;;;;;3.97;1.08;;;;;;;14.49;46.31;99276.34;4317654;33;20127;-89
2022/12/25 12:11:16;;;;;;;6.28;1.20;;;;;;;14.25;46.08;99274.25;4318111;33;20093;-89
2022/12/25 12:14:10;;;;;;;6.35;1.40;;;;;;;14.36;46.09;99273.59;4320222;33;20104;-89
2022/12/25 12:16:36;;;;;;;6.65;1.33;;;;;;;14.45;45.92;99272.19;4318078;33;20114;-89
2022/12/25 12:19:33;;;;;;;5.90;1.10;;;;;;;14.43;46.21;99271.41;4321187;33;20437;-89
2022/12/25 12:22:00;;;;;;;3.17;0.90;;;;;;;13.95;46.73;99283.16;4312446;33;20096;-89
2022/12/25 12:24:40;;;;;;;5.65;1.30;;;;;;;14.36;46.50;99273.59;4320282;33;20485;-89
2022/12/25 12:27:20;;;;;;;6.37;1.65;;;;;;;14.34;46.74;99275.50;4320202;33;20080;-89
2022/12/25 12:29:50;;;;;;;6.93;1.50;;;;;;;14.49;46.70;99281.66;4320119;33;20718;-89
2022/12/25 12:32:28;;;;;;;7.78;1.92;;;;;;;14.41;47.25;99283.91;4319943;33;20138;-89
2022/12/25 12:34:54;;;;;;;9.57;2.28;;;;;;;14.35;48.05;99280.72;4321160;33;20396;-89
2022/12/25 12:37:31;;;;;;;10.95;1.90;;;;;;;14.36;48.43;99285.06;4319878;33;20084;-90
2022/12/25 12:39:57;;;;;;;10.45;2.20;;;;;;;14.46;48.57;99287.13;4321116;33;20164;-89
2022/12/25 12:42:25;;;;;;;9.48;2.22;;;;;;;14.38;48.69;99282.31;4320094;33;20134;-89
2022/12/25 12:44:52;;;;;;;11.23;2.17;;;;;;;14.46;48.64;99290.63;4320040;33;20107;-89
2022/12/25 12:47:36;;;;;;;11.12;2.55;;;;;;;14.45;48.47;99290.75;4321321;33;20101;-91
2022/12/25 12:50:03;;;;;;;10.73;2.60;;;;;;;14.49;48.89;99289.59;4321319;33;20119;-89
2022/12/25 12:52:32;;;;;;;9.68;3.00;;;;;;;14.28;49.41;99287.34;4320047;33;20208;-90
2022/12/25 12:55:00;;;;;;;10.88;3.05;;;;;;;14.47;49.37;99288.84;4319736;33;20118;-89
2022/12/25 12:57:29;;;;;;;13.85;4.10;;;;;;;14.75;48.79;99286.16;4320889;33;20095;-91
2022/12/25 12:59:56;;;;;;;13.55;4.18;;;;;;;14.85;49.12;99288.22;4319776;33;20146;-91
2022/12/25 13:02:53;;;;;;;14.82;4.35;;;;;;;14.94;49.03;99295.59;4319787;33;20130;-90
2022/12/25 13:05:47;;;;;;;11.32;3.47;;;;;;;14.92;49.56;99297.50;4275251;33;20173;-90
2022/12/25 13:08:25;;;;;;;10.00;2.60;;;;;;;14.99;49.21;99297.94;4275201;33;20094;-89
2022/12/25 13:11:07;;;;;;;9.20;2.58;;;;;;;14.97;48.27;99305.16;4263315;33;20129;-89
2022/12/25 13:13:35;;;;;;;8.88;2.37;;;;;;;15.19;47.72;99299.31;4275159;33;20097;-90
2022/12/25 13:16:00;;;;;;;6.35;1.45;;;;;;;15.03;47.17;99302.97;4263122;33;20123;-89
2022/12/25 13:18:25;;;;;;;7.87;1.62;;;;;;;14.74;47.30;99303.03;4263238;33;20399;-90
2022/12/25 13:20:55;;;;;;;7.62;1.95;;;;;;;15.16;46.19;99294.22;4275302;33;20129;-89